Time;durP1;ratioP1;P1;durP2;ratioP2;P2;SDS_P1;SDS_P2;PMS_P1;PMS_P2;Temp;Humidity;BMP_temperature;BMP_pressure;BME280_temperature;BME280_humidity;BME280_pressure;Samples;Min_cycle;Max_cycle;Signal;HPM_P1;HPM_P2
2022/10/28 00:02:21;;;;;;;1.30;1.30;;;;;;;;;;4949891;28;20287;-52
2022/10/28 00:04:47;;;;;;;1.30;1.30;;;;;;;;;;4944945;28;20730;-52
2022/10/28 00:07:13;;;;;;;1.60;1.60;;;;;;;;;;4966138;28;21061;-54
2022/10/28 00:09:38;;;;;;;1.40;1.40;;;;;;;;;;4966749;28;20829;-54
2022/10/28 00:12:05;;;;;;;1.33;1.33;;;;;;;;;;4941887;28;20862;-51
2022/10/28 00:14:31;;;;;;;1.40;1.40;;;;;;;;;;4926617;28;20241;-54
2022/10/28 00:16:57;;;;;;;1.60;1.60;;;;;;;;;;4933310;28;20231;-51
2022/10/28 00:19:23;;;;;;;1.50;1.50;;;;;;;;;;4946164;28;20709;-52
2022/10/28 00:21:49;;;;;;;1.60;1.60;;;;;;;;;;4946363;28;20245;-54
2022/10/28 00:24:15;;;;;;;1.33;1.33;;;;;;;;;;4970091;28;20268;-54
2022/10/28 00:26:41;;;;;;;1.30;1.30;;;;;;;;;;4915309;28;20693;-54
2022/10/28 00:29:11;;;;;;;1.60;1.60;;;;;;;;;;4957476;28;20222;-53
2022/10/28 00:31:37;;;;;;;1.60;1.60;;;;;;;;;;4969026;28;21032;-53
2022/10/28 00:34:04;;;;;;;1.50;1.50;;;;;;;;;;4973456;28;20241;-52
2022/10/28 00:36:31;;;;;;;1.27;1.27;;;;;;;;;;4970349;28;20279;-54
2022/10/28 00:38:57;;;;;;;1.30;1.30;;;;;;;;;;4967896;28;20299;-54
2022/10/28 00:41:33;;;;;;;1.20;1.20;;;;;;;;;;4967156;28;20581;-52
2022/10/28 00:44:00;;;;;;;1.20;1.20;;;;;;;;;;4971607;28;20230;-54
2022/10/28 00:46:28;;;;;;;1.30;1.30;;;;;;;;;;4971675;28;20356;-54
2022/10/28 00:48:55;;;;;;;1.40;1.40;;;;;;;;;;4968353;28;20222;-54
2022/10/28 00:51:22;;;;;;;1.47;1.47;;;;;;;;;;4975428;28;20740;-54
2022/10/28 00:53:48;;;;;;;1.27;1.27;;;;;;;;;;4957201;28;20265;-53
2022/10/28 00:56:13;;;;;;;1.57;1.57;;;;;;;;;;4965109;28;20742;-54
2022/10/28 00:58:40;;;;;;;1.40;1.40;;;;;;;;;;4971163;28;20314;-54
2022/10/28 01:01:06;;;;;;;1.50;1.50;;;;;;;;;;4959174;28;20222;-55
2022/10/28 01:03:32;;;;;;;1.27;1.27;;;;;;;;;;4960869;28;20230;-53
2022/10/28 01:05:58;;;;;;;1.40;1.40;;;;;;;;;;4978529;28;20288;-54
2022/10/28 01:08:25;;;;;;;1.20;1.20;;;;;;;;;;4971171;28;20238;-54
2022/10/28 01:11:01;;;;;;;1.30;1.30;;;;;;;;;;4965005;28;20230;-54
2022/10/28 01:13:30;;;;;;;1.40;1.40;;;;;;;;;;4974445;28;20313;-54
2022/10/28 01:16:15;;;;;;;1.30;1.30;;;;;;;;;;4964270;28;20296;-53
2022/10/28 01:18:43;;;;;;;1.20;1.20;;;;;;;;;;4970778;28;20238;-54
2022/10/28 01:21:28;;;;;;;1.50;1.50;;;;;;;;;;4966119;28;20230;-54
2022/10/28 01:24:06;;;;;;;1.40;1.40;;;;;;;;;;4966673;28;21040;-53
2022/10/28 01:26:47;;;;;;;1.30;1.30;;;;;;;;;;4953741;28;20235;-52
2022/10/28 01:29:25;;;;;;;1.40;1.40;;;;;;;;;;4959576;28;20245;-51
2022/10/28 01:31:54;;;;;;;1.33;1.33;;;;;;;;;;4967455;28;20605;-53
2022/10/28 01:34:20;;;;;;;1.30;1.30;;;;;;;;;;4957083;28;20618;-54
2022/10/28 01:37:06;;;;;;;1.30;1.30;;;;;;;;;;4964159;28;20229;-54
2022/10/28 01:39:44;;;;;;;1.20;1.20;;;;;;;;;;4956110;28;20234;-53
2022/10/28 01:42:23;;;;;;;1.50;1.50;;;;;;;;;;4969545;28;20676;-54
2022/10/28 01:44:52;;;;;;;1.50;1.50;;;;;;;;;;4962671;28;20643;-54
2022/10/28 01:47:38;;;;;;;1.63;1.63;;;;;;;;;;4967629;28;20226;-54
2022/10/28 01:50:05;;;;;;;1.53;1.53;;;;;;;;;;4953037;28;20228;-54
2022/10/28 01:52:31;;;;;;;1.70;1.70;;;;;;;;;;4955898;28;20225;-54
2022/10/28 01:55:14;;;;;;;1.57;1.57;;;;;;;;;;4972475;28;20278;-54
2022/10/28 01:57:40;;;;;;;1.60;1.60;;;;;;;;;;4972455;28;20946;-52
2022/10/28 02:00:06;;;;;;;1.60;1.60;;;;;;;;;;4969881;28;20248;-54
2022/10/28 02:02:33;;;;;;;1.33;1.33;;;;;;;;;;4967824;28;21162;-54
2022/10/28 02:05:17;;;;;;;1.50;1.50;;;;;;;;;;4931955;28;20254;-54
2022/10/28 02:07:43;;;;;;;1.50;1.50;;;;;;;;;;4971238;28;20704;-52
2022/10/28 02:10:15;;;;;;;1.30;1.30;;;;;;;;;;4964532;28;20216;-51
2022/10/28 02:12:41;;;;;;;1.40;1.40;;;;;;;;;;4939514;28;20304;-54
2022/10/28 02:15:23;;;;;;;1.40;1.40;;;;;;;;;;4961109;28;20266;-54
2022/10/28 02:17:55;;;;;;;1.33;1.33;;;;;;;;;;4952941;28;20329;-54
2022/10/28 02:20:24;;;;;;;1.33;1.33;;;;;;;;;;4973211;28;20242;-54
2022/10/28 02:22:56;;;;;;;1.50;1.50;;;;;;;;;;4972853;28;20576;-52
2022/10/28 02:25:26;;;;;;;1.50;1.50;;;;;;;;;;4972476;28;20226;-51
2022/10/28 02:27:51;;;;;;;1.37;1.37;;;;;;;;;;4951021;28;20766;-54
2022/10/28 02:30:20;;;;;;;1.53;1.53;;;;;;;;;;4972765;28;20222;-52
2022/10/28 02:32:48;;;;;;;1.40;1.40;;;;;;;;;;4976838;28;20584;-55
2022/10/28 02:35:16;;;;;;;1.40;1.40;;;;;;;;;;4970862;28;20534;-54
2022/10/28 02:37:42;;;;;;;1.40;1.40;;;;;;;;;;4975670;28;20231;-52
2022/10/28 02:40:09;;;;;;;1.50;1.50;;;;;;;;;;4977118;28;20226;-54
2022/10/28 02:42:40;;;;;;;1.60;1.60;;;;;;;;;;4950733;28;20752;-53
2022/10/28 02:45:14;;;;;;;1.37;1.37;;;;;;;;;;4959816;28;20227;-51
2022/10/28 02:47:41;;;;;;;1.40;1.40;;;;;;;;;;4958344;28;20310;-53
2022/10/28 02:50:09;;;;;;;1.50;1.50;;;;;;;;;;4955809;28;20222;-54
2022/10/28 02:52:35;;;;;;;1.60;1.60;;;;;;;;;;4968090;28;20237;-53
2022/10/28 02:55:03;;;;;;;1.97;1.87;;;;;;;;;;4968748;28;20218;-52
2022/10/28 02:57:33;;;;;;;1.50;1.50;;;;;;;;;;4972881;28;20711;-52
2022/10/28 03:00:00;;;;;;;1.90;1.80;;;;;;;;;;4948223;28;20282;-54
2022/10/28 03:02:26;;;;;;;1.60;1.60;;;;;;;;;;4953060;28;20231;-54
2022/10/28 03:04:52;;;;;;;1.70;1.70;;;;;;;;;;4975693;28;20231;-54
2022/10/28 03:07:17;;;;;;;1.70;1.70;;;;;;;;;;4962824;28;20275;-54
2022/10/28 03:09:43;;;;;;;1.90;1.80;;;;;;;;;;4977452;28;20224;-52
2022/10/28 03:12:09;;;;;;;1.67;1.67;;;;;;;;;;4970872;28;20263;-52
2022/10/28 03:14:35;;;;;;;2.10;2.00;;;;;;;;;;4969494;28;20228;-52
2022/10/28 03:17:01;;;;;;;1.50;1.50;;;;;;;;;;4973824;28;20233;-54
2022/10/28 03:19:27;;;;;;;1.70;1.70;;;;;;;;;;4983022;28;20227;-53
2022/10/28 03:21:53;;;;;;;1.90;1.80;;;;;;;;;;4980977;28;20257;-53
2022/10/28 03:24:19;;;;;;;1.60;1.60;;;;;;;;;;4976095;28;20241;-54
2022/10/28 03:26:45;;;;;;;1.50;1.50;;;;;;;;;;4971146;28;20225;-54
2022/10/28 03:29:11;;;;;;;1.53;1.53;;;;;;;;;;4971089;28;20222;-52
2022/10/28 03:31:37;;;;;;;1.50;1.50;;;;;;;;;;4966957;28;20227;-54
2022/10/28 03:34:03;;;;;;;1.50;1.50;;;;;;;;;;4972516;28;20298;-54
2022/10/28 03:36:29;;;;;;;1.50;1.50;;;;;;;;;;4977040;28;20779;-53
2022/10/28 03:38:55;;;;;;;1.40;1.40;;;;;;;;;;4970186;28;20321;-54
2022/10/28 03:41:21;;;;;;;1.60;1.60;;;;;;;;;;4975336;28;20309;-53
2022/10/28 03:43:47;;;;;;;1.50;1.50;;;;;;;;;;4975465;28;20261;-54
2022/10/28 03:46:12;;;;;;;1.50;1.50;;;;;;;;;;4970104;28;20223;-52
2022/10/28 03:48:38;;;;;;;1.60;1.60;;;;;;;;;;4963557;28;20261;-53
2022/10/28 03:51:04;;;;;;;2.20;2.10;;;;;;;;;;4971911;28;20222;-54
2022/10/28 03:53:30;;;;;;;2.20;2.10;;;;;;;;;;4975706;28;20698;-53
2022/10/28 03:55:57;;;;;;;1.90;1.80;;;;;;;;;;4961876;28;20234;-53
2022/10/28 03:58:23;;;;;;;1.90;1.80;;;;;;;;;;4969966;28;20740;-53
2022/10/28 04:00:49;;;;;;;2.40;2.30;;;;;;;;;;4972356;28;20222;-52
2022/10/28 04:03:18;;;;;;;2.20;2.10;;;;;;;;;;4962045;28;20313;-54
2022/10/28 04:05:47;;;;;;;1.90;1.80;;;;;;;;;;4967858;28;20625;-53
2022/10/28 04:08:13;;;;;;;1.50;1.50;;;;;;;;;;4974597;28;20229;-51
2022/10/28 04:10:39;;;;;;;1.50;1.50;;;;;;;;;;4959167;28;20219;-53
2022/10/28 04:13:05;;;;;;;1.90;1.80;;;;;;;;;;4964519;28;20226;-53
2022/10/28 04:15:31;;;;;;;1.80;1.70;;;;;;;;;;4961801;28;20237;-54
2022/10/28 04:17:57;;;;;;;1.50;1.50;;;;;;;;;;4954147;28;20269;-54
2022/10/28 04:20:23;;;;;;;1.60;1.60;;;;;;;;;;4960291;28;21604;-53
2022/10/28 04:22:49;;;;;;;1.90;1.80;;;;;;;;;;4968334;28;20232;-51
2022/10/28 04:25:15;;;;;;;1.80;1.70;;;;;;;;;;4963070;28;20230;-53
2022/10/28 04:27:41;;;;;;;1.97;1.87;;;;;;;;;;4959827;28;20241;-51
2022/10/28 04:30:07;;;;;;;1.70;1.70;;;;;;;;;;4938949;28;20234;-53
2022/10/28 04:32:33;;;;;;;1.90;1.80;;;;;;;;;;4965304;28;20238;-53
2022/10/28 04:34:59;;;;;;;1.50;1.50;;;;;;;;;;4951783;28;20263;-53
2022/10/28 04:37:25;;;;;;;2.07;1.97;;;;;;;;;;4956511;28;20280;-52
2022/10/28 04:39:51;;;;;;;1.90;1.80;;;;;;;;;;4960047;28;20254;-54
2022/10/28 04:42:17;;;;;;;1.90;1.80;;;;;;;;;;4967461;28;20324;-54
2022/10/28 04:44:43;;;;;;;1.80;1.70;;;;;;;;;;4972690;28;20230;-53
2022/10/28 04:47:09;;;;;;;2.10;2.00;;;;;;;;;;4972192;28;20300;-52
2022/10/28 04:49:34;;;;;;;2.20;2.10;;;;;;;;;;4967410;28;20790;-51
2022/10/28 04:52:00;;;;;;;2.80;2.70;;;;;;;;;;4965841;28;20222;-54
2022/10/28 04:54:26;;;;;;;2.90;2.80;;;;;;;;;;4950080;28;20292;-54
2022/10/28 04:56:53;;;;;;;2.70;2.60;;;;;;;;;;4950254;28;20688;-52
2022/10/28 04:59:19;;;;;;;2.50;2.40;;;;;;;;;;4930801;28;20760;-53
2022/10/28 05:01:45;;;;;;;2.93;2.83;;;;;;;;;;4956016;28;20635;-51
2022/10/28 05:04:11;;;;;;;2.60;2.50;;;;;;;;;;4938097;28;20697;-52
2022/10/28 05:06:37;;;;;;;2.90;2.80;;;;;;;;;;4945028;28;21340;-52
2022/10/28 05:09:03;;;;;;;2.30;2.20;;;;;;;;;;4930758;28;20226;-53
2022/10/28 05:11:29;;;;;;;2.87;2.77;;;;;;;;;;4946435;28;20225;-53
2022/10/28 05:13:55;;;;;;;3.10;3.00;;;;;;;;;;4944043;28;20339;-52
2022/10/28 05:16:21;;;;;;;3.03;2.93;;;;;;;;;;4943025;28;20256;-52
2022/10/28 05:18:47;;;;;;;3.07;2.97;;;;;;;;;;4922639;28;20226;-53
2022/10/28 05:21:13;;;;;;;3.10;3.00;;;;;;;;;;4926683;28;20230;-53
2022/10/28 05:23:39;;;;;;;3.10;3.00;;;;;;;;;;4977866;28;20308;-53
2022/10/28 05:26:05;;;;;;;2.70;2.60;;;;;;;;;;4972433;28;20897;-53
2022/10/28 05:28:31;;;;;;;2.73;2.63;;;;;;;;;;4983175;28;20576;-53
2022/10/28 05:30:57;;;;;;;2.47;2.37;;;;;;;;;;4980881;28;20958;-53
2022/10/28 05:33:23;;;;;;;2.50;2.40;;;;;;;;;;4975151;28;20210;-54
2022/10/28 05:35:49;;;;;;;2.70;2.60;;;;;;;;;;4964493;28;21137;-54
2022/10/28 05:38:14;;;;;;;3.40;3.30;;;;;;;;;;4959367;28;20230;-52
2022/10/28 05:40:40;;;;;;;2.50;2.40;;;;;;;;;;4979848;28;20614;-53
2022/10/28 05:43:08;;;;;;;3.20;3.10;;;;;;;;;;4965136;28;20628;-52
2022/10/28 05:45:34;;;;;;;2.70;2.60;;;;;;;;;;4983370;28;20217;-52
2022/10/28 05:48:00;;;;;;;2.80;2.70;;;;;;;;;;4972711;28;20260;-52
2022/10/28 05:50:26;;;;;;;2.90;2.80;;;;;;;;;;4975107;28;20662;-52
2022/10/28 05:52:53;;;;;;;3.57;3.47;;;;;;;;;;4972263;28;20588;-53
2022/10/28 05:55:19;;;;;;;2.60;2.50;;;;;;;;;;4979535;28;20712;-53
2022/10/28 05:57:46;;;;;;;2.57;2.47;;;;;;;;;;4979850;28;20226;-53
2022/10/28 06:00:12;;;;;;;2.70;2.60;;;;;;;;;;4971496;28;20309;-52
2022/10/28 06:02:38;;;;;;;2.60;2.50;;;;;;;;;;4974938;28;20785;-53
2022/10/28 06:05:04;;;;;;;2.70;2.60;;;;;;;;;;4975273;28;20258;-53
2022/10/28 06:07:30;;;;;;;2.30;2.20;;;;;;;;;;4960528;28;20280;-53
2022/10/28 06:09:56;;;;;;;3.07;2.97;;;;;;;;;;4983174;28;21086;-53
2022/10/28 06:12:22;;;;;;;2.70;2.60;;;;;;;;;;4977922;28;21478;-53
2022/10/28 06:14:48;;;;;;;2.00;1.90;;;;;;;;;;4979268;28;20226;-54
2022/10/28 06:17:14;;;;;;;1.80;1.70;;;;;;;;;;4978342;28;20845;-53
2022/10/28 06:19:40;;;;;;;1.83;1.77;;;;;;;;;;4985691;28;20698;-51
2022/10/28 06:22:06;;;;;;;2.10;2.00;;;;;;;;;;4975830;28;20845;-53
2022/10/28 06:24:32;;;;;;;2.10;2.00;;;;;;;;;;4968401;28;20301;-51
2022/10/28 06:26:58;;;;;;;2.20;2.10;;;;;;;;;;4983930;28;20229;-54
2022/10/28 06:29:24;;;;;;;1.80;1.70;;;;;;;;;;4986213;28;20250;-53
2022/10/28 06:31:50;;;;;;;1.60;1.60;;;;;;;;;;4972503;28;20226;-53
2022/10/28 06:34:16;;;;;;;1.60;1.60;;;;;;;;;;4988365;28;20648;-54
2022/10/28 06:36:42;;;;;;;1.70;1.70;;;;;;;;;;4971426;28;20700;-53
2022/10/28 06:39:08;;;;;;;1.50;1.50;;;;;;;;;;4970227;28;20693;-54
2022/10/28 06:41:34;;;;;;;1.60;1.60;;;;;;;;;;4986385;28;20226;-53
2022/10/28 06:44:00;;;;;;;1.70;1.70;;;;;;;;;;4984160;28;20226;-53
2022/10/28 06:46:26;;;;;;;1.70;1.70;;;;;;;;;;4976318;28;20239;-53
2022/10/28 06:48:53;;;;;;;1.70;1.70;;;;;;;;;;4975223;28;20310;-53
2022/10/28 06:51:19;;;;;;;1.50;1.50;;;;;;;;;;4972881;28;20226;-52
2022/10/28 06:53:48;;;;;;;1.40;1.40;;;;;;;;;;4986666;28;20235;-53
2022/10/28 06:56:14;;;;;;;1.50;1.50;;;;;;;;;;4983136;28;20274;-54
2022/10/28 06:58:40;;;;;;;1.60;1.60;;;;;;;;;;4978371;28;20305;-52
2022/10/28 07:01:06;;;;;;;1.40;1.40;;;;;;;;;;4972932;28;20245;-52
2022/10/28 07:03:32;;;;;;;1.43;1.43;;;;;;;;;;4976483;28;20218;-53
2022/10/28 07:05:58;;;;;;;1.40;1.40;;;;;;;;;;4977344;28;20242;-53
2022/10/28 07:08:24;;;;;;;1.50;1.50;;;;;;;;;;4986126;28;20549;-53
2022/10/28 07:10:57;;;;;;;1.50;1.50;;;;;;;;;;4981367;28;20234;-53
2022/10/28 07:13:23;;;;;;;1.50;1.50;;;;;;;;;;4983009;28;20603;-54
2022/10/28 07:15:52;;;;;;;1.60;1.60;;;;;;;;;;4975159;28;20354;-53
2022/10/28 07:18:18;;;;;;;1.90;1.80;;;;;;;;;;4985387;28;20728;-53
2022/10/28 07:20:44;;;;;;;1.90;1.80;;;;;;;;;;4973309;28;20229;-53
2022/10/28 07:23:10;;;;;;;1.50;1.50;;;;;;;;;;4966779;28;20304;-52
2022/10/28 07:25:36;;;;;;;1.67;1.67;;;;;;;;;;4973853;28;20241;-52
2022/10/28 07:28:02;;;;;;;1.90;1.80;;;;;;;;;;4972027;28;20585;-54
2022/10/28 07:30:28;;;;;;;1.40;1.40;;;;;;;;;;4981697;28;20704;-53
2022/10/28 07:32:54;;;;;;;1.50;1.50;;;;;;;;;;4970976;28;20698;-53
2022/10/28 07:35:20;;;;;;;1.73;1.67;;;;;;;;;;4979866;28;20234;-53
2022/10/28 07:37:46;;;;;;;1.90;1.80;;;;;;;;;;4966144;28;20269;-53
2022/10/28 07:40:12;;;;;;;1.60;1.60;;;;;;;;;;4978649;28;20312;-54
2022/10/28 07:42:38;;;;;;;1.57;1.57;;;;;;;;;;4969953;28;20493;-52
2022/10/28 07:45:04;;;;;;;1.30;1.30;;;;;;;;;;4973317;28;20230;-54
2022/10/28 07:47:30;;;;;;;1.60;1.60;;;;;;;;;;4953185;28;20230;-54
2022/10/28 07:49:56;;;;;;;1.40;1.40;;;;;;;;;;4980582;28;20709;-54
2022/10/28 07:52:22;;;;;;;1.60;1.60;;;;;;;;;;4967884;28;20212;-54
2022/10/28 07:54:48;;;;;;;1.30;1.30;;;;;;;;;;4980927;28;20225;-54
2022/10/28 07:57:14;;;;;;;1.50;1.50;;;;;;;;;;4966190;28;20225;-54
2022/10/28 07:59:40;;;;;;;1.37;1.37;;;;;;;;;;4974594;28;20231;-54
2022/10/28 08:02:06;;;;;;;1.67;1.67;;;;;;;;;;4971220;28;20227;-54
2022/10/28 08:04:32;;;;;;;1.60;1.60;;;;;;;;;;4970035;28;20262;-54
2022/10/28 08:06:58;;;;;;;1.90;1.80;;;;;;;;;;4971493;28;20684;-55
2022/10/28 08:09:24;;;;;;;1.30;1.30;;;;;;;;;;4967783;28;20225;-54
2022/10/28 08:11:50;;;;;;;1.40;1.40;;;;;;;;;;4968705;28;20706;-53
2022/10/28 08:14:16;;;;;;;1.50;1.50;;;;;;;;;;4977598;28;20271;-53
2022/10/28 08:16:42;;;;;;;1.50;1.50;;;;;;;;;;4979276;28;20283;-54
2022/10/28 08:19:08;;;;;;;1.40;1.40;;;;;;;;;;4978665;28;20272;-54
2022/10/28 08:21:33;;;;;;;1.50;1.50;;;;;;;;;;4970562;28;20227;-54
2022/10/28 08:23:59;;;;;;;1.47;1.47;;;;;;;;;;4975821;28;20223;-54
2022/10/28 08:26:25;;;;;;;1.20;1.20;;;;;;;;;;4972575;28;20245;-54
2022/10/28 08:28:52;;;;;;;1.43;1.43;;;;;;;;;;4973951;28;20235;-55
2022/10/28 08:31:18;;;;;;;1.40;1.40;;;;;;;;;;4976075;28;20222;-52
2022/10/28 08:33:44;;;;;;;1.40;1.40;;;;;;;;;;4965360;28;20693;-54
2022/10/28 08:36:10;;;;;;;1.50;1.50;;;;;;;;;;4972853;28;20226;-54
2022/10/28 08:38:36;;;;;;;1.50;1.50;;;;;;;;;;4953022;28;21355;-54
2022/10/28 08:41:21;;;;;;;1.40;1.40;;;;;;;;;;4988070;28;20246;-54
2022/10/28 08:43:56;;;;;;;1.50;1.50;;;;;;;;;;4968759;28;20603;-54
2022/10/28 08:46:22;;;;;;;1.50;1.50;;;;;;;;;;4972140;28;20222;-54
2022/10/28 08:48:48;;;;;;;1.50;1.50;;;;;;;;;;4978138;28;20228;-54
2022/10/28 08:51:15;;;;;;;1.50;1.50;;;;;;;;;;4973610;28;20222;-52
2022/10/28 08:54:01;;;;;;;1.50;1.50;;;;;;;;;;4963165;28;20231;-53
2022/10/28 08:56:31;;;;;;;1.50;1.50;;;;;;;;;;4974255;28;20304;-53
2022/10/28 08:58:59;;;;;;;1.60;1.60;;;;;;;;;;4980189;28;20639;-54
2022/10/28 09:01:41;;;;;;;1.50;1.50;;;;;;;;;;4958379;28;20588;-54
2022/10/28 09:04:10;;;;;;;1.27;1.27;;;;;;;;;;4955040;28;21021;-54
2022/10/28 09:06:36;;;;;;;1.30;1.30;;;;;;;;;;4950055;28;20237;-53
2022/10/28 09:09:02;;;;;;;1.10;1.10;;;;;;;;;;4945643;28;20235;-55
2022/10/28 09:11:28;;;;;;;1.40;1.40;;;;;;;;;;4939079;28;21478;-53
2022/10/28 09:13:57;;;;;;;1.10;1.10;;;;;;;;;;4947430;28;20230;-55
2022/10/28 09:16:27;;;;;;;1.20;1.20;;;;;;;;;;4950141;28;20261;-55
2022/10/28 09:18:53;;;;;;;1.30;1.30;;;;;;;;;;4943405;28;20714;-54
2022/10/28 09:21:24;;;;;;;1.48;1.48;;;;;;;;;;4949488;28;21014;-55
2022/10/28 09:23:54;;;;;;;1.35;1.35;;;;;;;;;;4934027;28;20262;-55
2022/10/28 09:26:27;;;;;;;1.42;1.42;;;;;;;;;;4933784;28;20222;-54
2022/10/28 09:29:02;;;;;;;1.50;1.50;;;;;;;;;;4927723;28;20294;-54
2022/10/28 09:31:45;;;;;;;1.10;1.10;;;;;;;;;;4943649;28;20226;-53
2022/10/28 09:34:17;;;;;;;1.23;1.23;;;;;;;;;;4938570;28;20707;-52
2022/10/28 09:36:45;;;;;;;1.20;1.20;;;;;;;;;;4938274;28;20227;-54
2022/10/28 09:39:16;;;;;;;1.20;1.20;;;;;;;;;;4928924;28;20646;-52
2022/10/28 09:41:42;;;;;;;1.30;1.30;;;;;;;;;;4949137;28;20222;-53
2022/10/28 09:44:16;;;;;;;1.20;1.20;;;;;;;;;;4935498;28;20238;-53
2022/10/28 09:46:43;;;;;;;1.38;1.38;;;;;;;;;;4946973;28;20580;-54
2022/10/28 09:49:11;;;;;;;1.48;1.48;;;;;;;;;;4933908;28;20222;-54
2022/10/28 09:51:37;;;;;;;1.60;1.60;;;;;;;;;;4932753;28;20878;-54
2022/10/28 09:54:03;;;;;;;1.50;1.50;;;;;;;;;;4939940;28;20282;-53
2022/10/28 09:56:29;;;;;;;1.30;1.30;;;;;;;;;;4947980;28;20645;-54
2022/10/28 09:58:57;;;;;;;1.25;1.25;;;;;;;;;;4950704;28;21208;-53
2022/10/28 10:01:23;;;;;;;1.10;1.10;;;;;;;;;;4948765;28;20223;-55
2022/10/28 10:03:49;;;;;;;1.30;1.30;;;;;;;;;;4945515;28;20235;-54
2022/10/28 10:06:18;;;;;;;1.50;1.50;;;;;;;;;;4938314;28;20662;-54
2022/10/28 10:08:44;;;;;;;1.30;1.30;;;;;;;;;;4942024;28;20317;-54
2022/10/28 10:11:16;;;;;;;1.30;1.30;;;;;;;;;;4948223;28;20218;-54
2022/10/28 10:13:43;;;;;;;1.30;1.30;;;;;;;;;;4947631;28;20235;-53
2022/10/28 10:16:12;;;;;;;1.33;1.33;;;;;;;;;;4946794;28;20251;-52
2022/10/28 10:18:45;;;;;;;1.30;1.30;;;;;;;;;;4948849;28;20322;-53
2022/10/28 10:21:11;;;;;;;1.20;1.20;;;;;;;;;;4930620;28;20589;-54
2022/10/28 10:23:37;;;;;;;1.27;1.27;;;;;;;;;;4940948;28;20225;-53
2022/10/28 10:26:04;;;;;;;1.20;1.20;;;;;;;;;;4938937;28;20348;-54
2022/10/28 10:28:30;;;;;;;1.30;1.30;;;;;;;;;;4939371;28;20235;-54
2022/10/28 10:30:57;;;;;;;1.10;1.10;;;;;;;;;;4941811;28;20294;-54
2022/10/28 10:33:31;;;;;;;1.20;1.20;;;;;;;;;;4937596;28;20214;-55
2022/10/28 10:36:16;;;;;;;1.20;1.20;;;;;;;;;;4941584;28;20797;-54
2022/10/28 10:38:50;;;;;;;1.40;1.40;;;;;;;;;;4954024;28;20237;-54
2022/10/28 10:41:34;;;;;;;1.20;1.20;;;;;;;;;;4928934;28;20740;-54
2022/10/28 10:44:00;;;;;;;1.10;1.10;;;;;;;;;;4928372;28;20779;-54
2022/10/28 10:46:26;;;;;;;1.20;1.20;;;;;;;;;;4956358;28;20226;-52
2022/10/28 10:49:13;;;;;;;1.20;1.20;;;;;;;;;;4922438;28;20259;-56
2022/10/28 10:51:40;;;;;;;1.20;1.20;;;;;;;;;;4942676;28;20230;-53
2022/10/28 10:54:12;;;;;;;1.20;1.20;;;;;;;;;;4941312;28;20216;-54
2022/10/28 10:56:38;;;;;;;1.20;1.20;;;;;;;;;;4940069;28;20237;-53
2022/10/28 10:59:04;;;;;;;1.10;1.10;;;;;;;;;;4946919;28;20227;-52
2022/10/28 11:01:33;;;;;;;1.10;1.10;;;;;;;;;;4948924;28;20220;-54
2022/10/28 11:04:00;;;;;;;1.10;1.10;;;;;;;;;;4943804;28;20678;-55
2022/10/28 11:06:27;;;;;;;1.20;1.20;;;;;;;;;;4919931;28;20608;-54
2022/10/28 11:08:57;;;;;;;1.20;1.20;;;;;;;;;;4938688;28;20485;-53
2022/10/28 11:11:23;;;;;;;1.10;1.10;;;;;;;;;;4941575;28;20598;-54
2022/10/28 11:13:49;;;;;;;1.20;1.20;;;;;;;;;;4929905;28;20682;-57
2022/10/28 11:16:22;;;;;;;1.30;1.30;;;;;;;;;;4928355;28;20241;-55
2022/10/28 11:18:49;;;;;;;1.20;1.20;;;;;;;;;;4927072;28;20517;-55
2022/10/28 11:21:31;;;;;;;1.00;1.00;;;;;;;;;;4957091;28;20231;-55
2022/10/28 11:24:06;;;;;;;1.17;1.17;;;;;;;;;;4923062;28;20236;-52
2022/10/28 11:26:33;;;;;;;1.10;1.10;;;;;;;;;;4930775;28;20281;-56
2022/10/28 11:29:03;;;;;;;1.08;1.08;;;;;;;;;;4932746;28;20222;-55
2022/10/28 11:31:44;;;;;;;1.30;1.30;;;;;;;;;;4930847;28;20218;-54
2022/10/28 11:34:19;;;;;;;1.27;1.27;;;;;;;;;;4947572;28;20222;-55
2022/10/28 11:36:45;;;;;;;1.10;1.10;;;;;;;;;;4943766;28;20243;-53
2022/10/28 11:39:23;;;;;;;1.20;1.20;;;;;;;;;;4958445;28;20233;-54
2022/10/28 11:41:55;;;;;;;1.13;1.13;;;;;;;;;;4935436;28;20226;-55
2022/10/28 11:44:32;;;;;;;1.20;1.20;;;;;;;;;;4957979;28;20225;-55
2022/10/28 11:47:37;;;;;;;1.15;1.15;;;;;;;;;;4913488;28;20793;-55
2022/10/28 11:50:13;;;;;;;1.00;1.00;;;;;;;;;;4872519;29;20232;-55
2022/10/28 11:52:58;;;;;;;1.05;1.05;;;;;;;;;;4881166;29;20267;-54
2022/10/28 11:55:29;;;;;;;1.20;1.20;;;;;;;;;;4915105;28;20999;-52
2022/10/28 11:58:00;;;;;;;1.20;1.20;;;;;;;;;;4965657;28;20320;-55
2022/10/28 12:00:35;;;;;;;1.20;1.20;;;;;;;;;;4925075;28;20249;-55
2022/10/28 12:03:11;;;;;;;1.20;1.20;;;;;;;;;;4942859;28;20238;-54
2022/10/28 12:05:46;;;;;;;1.20;1.20;;;;;;;;;;4919730;28;20714;-55
2022/10/28 12:08:31;;;;;;;1.10;1.10;;;;;;;;;;4964422;28;20249;-54
2022/10/28 12:11:15;;;;;;;1.15;1.15;;;;;;;;;;4935833;28;20682;-54
2022/10/28 12:13:41;;;;;;;1.20;1.20;;;;;;;;;;4960213;28;20304;-54
2022/10/28 12:16:30;;;;;;;1.30;1.30;;;;;;;;;;4952902;28;20222;-55
2022/10/28 12:18:57;;;;;;;1.25;1.25;;;;;;;;;;4928375;28;20276;-53
2022/10/28 12:21:26;;;;;;;1.23;1.23;;;;;;;;;;4948920;28;20333;-53
2022/10/28 12:23:53;;;;;;;1.35;1.35;;;;;;;;;;4956631;28;20702;-56
2022/10/28 12:26:19;;;;;;;1.30;1.30;;;;;;;;;;4932668;28;20227;-54
2022/10/28 12:28:49;;;;;;;1.20;1.20;;;;;;;;;;4958509;28;20234;-53
2022/10/28 12:31:19;;;;;;;1.20;1.20;;;;;;;;;;4962579;28;20231;-55
2022/10/28 12:33:46;;;;;;;1.27;1.27;;;;;;;;;;4935097;28;20253;-54
2022/10/28 12:36:16;;;;;;;1.23;1.23;;;;;;;;;;4951526;28;22245;-53
2022/10/28 12:38:44;;;;;;;1.20;1.20;;;;;;;;;;4952481;28;20233;-54
2022/10/28 12:41:12;;;;;;;1.30;1.30;;;;;;;;;;4924653;28;20227;-54
2022/10/28 12:43:39;;;;;;;1.20;1.20;;;;;;;;;;4945637;28;20237;-55
2022/10/28 12:46:05;;;;;;;1.20;1.20;;;;;;;;;;4966585;28;20640;-55
2022/10/28 12:48:34;;;;;;;1.48;1.48;;;;;;;;;;4963705;28;20234;-56
2022/10/28 12:51:05;;;;;;;1.30;1.30;;;;;;;;;;4965517;28;20233;-56
2022/10/28 12:54:00;;;;;;;1.30;1.30;;;;;;;;;;4950744;28;20292;-53
2022/10/28 12:56:47;;;;;;;1.27;1.27;;;;;;;;;;4947591;28;20246;-55
2022/10/28 12:59:15;;;;;;;1.20;1.20;;;;;;;;;;4942622;28;20237;-54
2022/10/28 13:01:42;;;;;;;1.20;1.20;;;;;;;;;;4954860;28;20244;-53
2022/10/28 13:04:11;;;;;;;1.30;1.30;;;;;;;;;;4948715;28;20681;-53
2022/10/28 13:07:00;;;;;;;1.30;1.30;;;;;;;;;;4970232;28;20325;-52
2022/10/28 13:09:38;;;;;;;1.20;1.20;;;;;;;;;;4951981;28;20319;-54
2022/10/28 13:12:23;;;;;;;1.20;1.20;;;;;;;;;;4955272;28;20886;-54
2022/10/28 13:14:55;;;;;;;1.30;1.30;;;;;;;;;;4968175;28;20225;-53
2022/10/28 13:17:24;;;;;;;1.30;1.30;;;;;;;;;;4954144;28;20226;-54
2022/10/28 13:19:50;;;;;;;1.40;1.40;;;;;;;;;;4949353;28;20755;-55
2022/10/28 13:22:25;;;;;;;1.40;1.40;;;;;;;;;;4969645;28;20360;-54
2022/10/28 13:24:55;;;;;;;1.27;1.27;;;;;;;;;;4955700;28;20304;-52
2022/10/28 13:27:21;;;;;;;1.33;1.33;;;;;;;;;;4961346;28;20284;-55
2022/10/28 13:29:49;;;;;;;1.30;1.30;;;;;;;;;;4959103;28;20213;-54
2022/10/28 13:32:28;;;;;;;1.17;1.17;;;;;;;;;;4956590;28;20249;-53
2022/10/28 13:34:54;;;;;;;1.30;1.30;;;;;;;;;;4947895;28;20709;-54
2022/10/28 13:37:20;;;;;;;1.42;1.42;;;;;;;;;;4936140;28;20229;-55
2022/10/28 13:39:46;;;;;;;1.40;1.40;;;;;;;;;;4946090;28;21066;-53
2022/10/28 13:42:12;;;;;;;1.30;1.30;;;;;;;;;;4964084;28;20736;-54
2022/10/28 13:44:48;;;;;;;1.20;1.20;;;;;;;;;;4972634;28;20225;-53
2022/10/28 13:47:14;;;;;;;1.23;1.23;;;;;;;;;;4960675;28;20691;-52
2022/10/28 13:50:00;;;;;;;1.20;1.20;;;;;;;;;;4962971;28;20230;-54
2022/10/28 13:52:26;;;;;;;1.30;1.30;;;;;;;;;;4954426;28;20468;-54
2022/10/28 13:54:57;;;;;;;1.30;1.30;;;;;;;;;;4936120;28;20233;-52
2022/10/28 13:57:28;;;;;;;1.30;1.30;;;;;;;;;;4960395;28;20249;-53
2022/10/28 14:00:26;;;;;;;1.30;1.30;;;;;;;;;;4960880;28;20223;-52
2022/10/28 14:03:02;;;;;;;1.40;1.40;;;;;;;;;;4957684;28;20866;-57
2022/10/28 14:05:36;;;;;;;1.30;1.30;;;;;;;;;;4964118;28;20728;-54
2022/10/28 14:08:03;;;;;;;1.30;1.30;;;;;;;;;;4969318;28;20644;-54
2022/10/28 14:10:30;;;;;;;1.38;1.38;;;;;;;;;;4963953;28;20286;-52
2022/10/28 14:13:15;;;;;;;1.30;1.30;;;;;;;;;;4937245;28;20254;-54
2022/10/28 14:15:41;;;;;;;1.42;1.42;;;;;;;;;;4940839;28;20234;-53
2022/10/28 14:18:18;;;;;;;1.42;1.42;;;;;;;;;;4946367;28;20226;-53
2022/10/28 14:20:47;;;;;;;1.50;1.50;;;;;;;;;;4965962;28;20305;-51
2022/10/28 14:23:19;;;;;;;1.60;1.60;;;;;;;;;;4950360;28;20230;-53
2022/10/28 14:25:54;;;;;;;1.30;1.30;;;;;;;;;;4954117;28;20584;-52
2022/10/28 14:28:26;;;;;;;1.38;1.38;;;;;;;;;;4962344;28;20217;-52
2022/10/28 14:31:11;;;;;;;1.50;1.50;;;;;;;;;;4961828;28;20226;-53
2022/10/28 14:33:36;;;;;;;1.50;1.50;;;;;;;;;;4951761;28;20234;-52
2022/10/28 14:36:25;;;;;;;1.60;1.60;;;;;;;;;;4962328;28;20245;-54
2022/10/28 14:39:04;;;;;;;1.40;1.40;;;;;;;;;;4944760;28;20333;-51
2022/10/28 14:41:48;;;;;;;1.63;1.63;;;;;;;;;;4962450;28;20229;-53
2022/10/28 14:44:26;;;;;;;1.40;1.40;;;;;;;;;;4958439;28;20225;-52
2022/10/28 14:46:52;;;;;;;1.50;1.50;;;;;;;;;;4949174;28;20226;-52
2022/10/28 14:49:28;;;;;;;1.50;1.50;;;;;;;;;;4944579;28;20709;-54
2022/10/28 14:51:54;;;;;;;1.40;1.40;;;;;;;;;;4898635;28;20845;-53
2022/10/28 14:54:36;;;;;;;1.40;1.40;;;;;;;;;;4925858;28;20222;-51
2022/10/28 14:57:03;;;;;;;1.40;1.40;;;;;;;;;;4925001;28;20280;-53